createdAt,value
2022-12-23T00:00:54.980Z,4.40
2022-12-23T00:03:23.857Z,4.47
2022-12-23T00:05:53.165Z,4.40
2022-12-23T00:08:22.427Z,4.20
2022-12-23T00:10:51.983Z,4.33
2022-12-23T00:13:38.343Z,4.53
2022-12-23T00:16:10.929Z,4.77
2022-12-23T00:18:40.529Z,4.87
2022-12-23T00:21:12.002Z,4.60
2022-12-23T00:23:42.895Z,4.53
2022-12-23T00:26:16.720Z,4.53
2022-12-23T00:28:45.708Z,4.37
2022-12-23T00:31:18.745Z,4.67
2022-12-23T00:33:50.035Z,4.80
2022-12-23T00:36:21.061Z,4.73
2022-12-23T00:39:07.694Z,5.23
2022-12-23T00:41:54.282Z,4.60
2022-12-23T00:44:23.073Z,5.17
2022-12-23T00:46:53.279Z,4.93
2022-12-23T00:49:39.908Z,5.37
2022-12-23T00:52:10.348Z,4.90
2022-12-23T00:54:39.201Z,5.10
2022-12-23T00:57:07.967Z,5.17
2022-12-23T00:59:36.765Z,5.13
2022-12-23T01:02:24.514Z,5.43
2022-12-23T01:05:11.060Z,5.30
2022-12-23T01:07:40.435Z,5.47
2022-12-23T01:10:10.313Z,4.83
2022-12-23T01:12:38.874Z,5.17
2022-12-23T01:15:08.903Z,4.93
2022-12-23T01:17:39.012Z,5.10
2022-12-23T01:20:09.025Z,5.27
2022-12-23T01:22:37.941Z,5.63
2022-12-23T01:25:07.599Z,4.83
2022-12-23T01:27:36.362Z,5.87
2022-12-23T01:30:06.230Z,5.63
2022-12-23T01:32:34.979Z,5.50
2022-12-23T01:35:05.459Z,5.57
2022-12-23T01:37:34.216Z,5.30
2022-12-23T01:40:02.984Z,5.03
2022-12-23T01:42:46.705Z,5.20
2022-12-23T01:45:19.687Z,5.17
2022-12-23T01:47:51.810Z,5.93
2022-12-23T01:50:26.881Z,5.83
2022-12-23T01:53:07.731Z,5.60
2022-12-23T01:55:41.307Z,5.50
2022-12-23T01:58:14.405Z,5.37
2022-12-23T02:01:01.592Z,5.47
2022-12-23T02:03:45.647Z,5.70
2022-12-23T02:06:40.753Z,5.30
2022-12-23T02:09:20.634Z,5.10
2022-12-23T02:12:34.986Z,5.70
2022-12-23T02:15:52.383Z,5.60
2022-12-23T02:18:39.447Z,5.17
2022-12-23T02:21:33.497Z,5.37
2022-12-23T02:24:40.486Z,5.10
2022-12-23T02:27:16.075Z,5.37
2022-12-23T02:30:26.081Z,4.80
2022-12-23T02:33:18.772Z,5.20
2022-12-23T02:35:54.415Z,4.93
2022-12-23T02:38:28.082Z,4.87
2022-12-23T02:41:05.727Z,4.87
2022-12-23T02:43:43.569Z,5.27
2022-12-23T02:46:21.096Z,5.87
2022-12-23T02:48:56.175Z,5.77
2022-12-23T02:51:31.574Z,6.17
2022-12-23T02:54:05.230Z,5.87
2022-12-23T02:56:36.735Z,6.23
2022-12-23T02:59:11.734Z,6.33
2022-12-23T03:01:42.735Z,6.33
2022-12-23T03:04:11.543Z,6.77
2022-12-23T03:06:42.329Z,6.53
2022-12-23T03:09:14.437Z,6.97
2022-12-23T03:11:52.332Z,7.30
2022-12-23T03:14:37.516Z,7.40
2022-12-23T03:17:19.574Z,6.87
2022-12-23T03:19:55.108Z,7.10
2022-12-23T03:22:33.207Z,7.10
2022-12-23T03:25:07.292Z,7.90
2022-12-23T03:27:41.381Z,7.93
2022-12-23T03:30:13.289Z,8.17
2022-12-23T03:32:49.139Z,7.80
2022-12-23T03:35:21.465Z,7.40
2022-12-23T03:37:52.499Z,7.57
2022-12-23T03:40:24.515Z,7.30
2022-12-23T03:42:59.051Z,6.90
2022-12-23T03:45:40.669Z,7.03
2022-12-23T03:48:20.807Z,6.43
2022-12-23T03:50:53.765Z,6.70
2022-12-23T03:53:27.130Z,6.97
2022-12-23T03:56:00.637Z,6.90
2022-12-23T03:58:38.252Z,6.50
2022-12-23T04:01:13.801Z,6.80
2022-12-23T04:03:53.301Z,6.83
2022-12-23T04:06:23.023Z,6.87
2022-12-23T04:08:52.071Z,7.03
2022-12-23T04:11:21.128Z,7.17
2022-12-23T04:13:50.110Z,7.10
2022-12-23T04:16:19.040Z,7.40
2022-12-23T04:18:49.058Z,6.87
2022-12-23T04:21:17.623Z,6.67
2022-12-23T04:23:46.223Z,6.80
2022-12-23T04:26:14.989Z,7.50
2022-12-23T04:28:43.740Z,7.23
2022-12-23T04:31:12.548Z,7.10
2022-12-23T04:33:41.335Z,7.43
2022-12-23T04:36:11.479Z,7.27
2022-12-23T04:38:40.141Z,7.53
2022-12-23T04:41:08.897Z,6.77
2022-12-23T04:43:37.581Z,7.53
2022-12-23T04:46:06.600Z,7.47
2022-12-23T04:48:35.249Z,7.97
2022-12-23T04:51:04.232Z,7.87
2022-12-23T04:53:34.491Z,7.93
2022-12-23T04:56:03.130Z,7.53
2022-12-23T04:58:31.728Z,7.63
2022-12-23T05:01:04.199Z,7.90
2022-12-23T05:03:33.256Z,7.23
2022-12-23T05:06:02.268Z,7.13
2022-12-23T05:08:31.149Z,7.13
2022-12-23T05:11:01.316Z,7.30
2022-12-23T05:13:30.014Z,7.27
2022-12-23T05:15:58.803Z,7.30
2022-12-23T05:18:27.489Z,7.03
2022-12-23T05:20:56.072Z,7.07
2022-12-23T05:23:24.753Z,6.90
2022-12-23T05:25:55.515Z,7.20
2022-12-23T05:28:25.654Z,7.20
2022-12-23T05:31:00.225Z,7.57
2022-12-23T05:33:29.410Z,7.40
2022-12-23T05:35:58.524Z,6.87
2022-12-23T05:38:27.648Z,6.90
2022-12-23T05:40:56.353Z,6.27
2022-12-23T05:43:26.529Z,6.87
2022-12-23T05:45:55.442Z,6.53
2022-12-23T05:48:24.411Z,6.57
2022-12-23T05:50:53.956Z,6.80
2022-12-23T05:53:24.671Z,6.27
2022-12-23T05:55:53.438Z,6.63
2022-12-23T05:58:22.045Z,6.07
2022-12-23T06:00:52.127Z,6.50
2022-12-23T06:03:20.989Z,5.63
2022-12-23T06:05:52.017Z,6.50
2022-12-23T06:08:20.611Z,5.07
2022-12-23T06:10:49.410Z,5.50
2022-12-23T06:13:17.991Z,5.87
2022-12-23T06:15:46.686Z,4.90
2022-12-23T06:18:16.915Z,5.00
2022-12-23T06:20:47.806Z,4.50
2022-12-23T06:23:16.580Z,4.20
2022-12-23T06:25:45.349Z,4.00
2022-12-23T06:28:14.115Z,4.00
2022-12-23T06:30:42.857Z,4.10
2022-12-23T06:33:11.481Z,4.50
2022-12-23T06:35:41.581Z,3.90
2022-12-23T06:38:12.164Z,3.77
2022-12-23T06:40:41.426Z,4.00
2022-12-23T06:43:11.507Z,6.87
2022-12-23T06:45:40.345Z,6.03
2022-12-23T06:48:09.271Z,3.47
2022-12-23T06:50:37.905Z,3.50
2022-12-23T06:53:08.208Z,3.80
2022-12-23T06:55:37.132Z,3.80
2022-12-23T06:58:05.832Z,4.10
2022-12-23T07:00:35.237Z,3.83
2022-12-23T07:05:55.444Z,3.50
2022-12-23T07:08:25.648Z,3.40
2022-12-23T07:10:59.643Z,3.97
2022-12-23T07:13:28.797Z,3.50
2022-12-23T07:15:57.688Z,3.33
2022-12-23T07:18:26.947Z,2.90
2022-12-23T07:20:55.636Z,3.00
2022-12-23T07:23:25.892Z,3.40
2022-12-23T07:25:55.885Z,3.10
2022-12-23T07:28:24.862Z,3.23
2022-12-23T07:30:53.538Z,3.80
2022-12-23T07:33:22.166Z,3.60
2022-12-23T07:35:50.804Z,3.20
2022-12-23T07:38:19.500Z,3.30
2022-12-23T07:40:51.740Z,4.20
2022-12-23T07:43:20.391Z,3.23
2022-12-23T07:45:53.996Z,3.00
2022-12-23T07:48:26.364Z,2.50
2022-12-23T07:50:54.948Z,2.53
2022-12-23T07:53:23.546Z,2.17
2022-12-23T07:55:56.741Z,2.37
2022-12-23T07:58:26.345Z,2.40
2022-12-23T08:01:01.882Z,2.30
2022-12-23T08:03:30.817Z,2.27
2022-12-23T08:06:04.478Z,2.37
2022-12-23T08:08:33.470Z,2.57
2022-12-23T08:11:05.300Z,2.40
2022-12-23T08:13:35.834Z,2.30
2022-12-23T08:16:05.625Z,2.10
2022-12-23T08:18:36.537Z,2.30
2022-12-23T08:21:07.066Z,2.07
2022-12-23T08:23:36.409Z,2.37
2022-12-23T08:26:08.742Z,1.97
2022-12-23T08:28:38.487Z,1.70
2022-12-23T08:31:09.517Z,2.00
2022-12-23T08:33:39.539Z,1.80
2022-12-23T08:36:22.440Z,1.50
2022-12-23T08:38:52.813Z,1.50
2022-12-23T08:41:25.205Z,1.70
2022-12-23T08:43:57.733Z,1.90
2022-12-23T08:46:27.819Z,1.73
2022-12-23T08:49:23.569Z,1.60
2022-12-23T08:51:55.002Z,1.60
2022-12-23T08:54:24.091Z,1.40
2022-12-23T08:56:54.255Z,1.40
2022-12-23T08:59:23.091Z,1.57
2022-12-23T09:01:51.846Z,1.37
2022-12-23T09:04:20.618Z,1.40
2022-12-23T09:06:49.511Z,1.30
2022-12-23T09:09:18.158Z,1.70
2022-12-23T09:11:46.986Z,1.40
2022-12-23T09:14:17.212Z,1.50
2022-12-23T09:16:46.011Z,1.70
2022-12-23T09:19:14.632Z,2.20
2022-12-23T09:21:43.366Z,2.20
2022-12-23T09:24:11.950Z,1.80
2022-12-23T09:26:40.611Z,1.60
2022-12-23T09:29:09.364Z,1.60
2022-12-23T09:31:39.719Z,2.50
2022-12-23T09:34:08.565Z,1.80
2022-12-23T09:36:37.695Z,1.60
2022-12-23T09:39:06.453Z,1.33
2022-12-23T09:41:50.017Z,1.53
2022-12-23T09:44:48.040Z,1.27
2022-12-23T09:47:22.211Z,1.70
2022-12-23T09:49:54.584Z,1.77
2022-12-23T09:52:28.215Z,1.33
2022-12-23T09:54:59.145Z,1.63
2022-12-23T09:57:36.536Z,1.50
2022-12-23T10:00:09.058Z,1.63
2022-12-23T10:02:49.313Z,1.97
2022-12-23T10:05:31.867Z,1.40
2022-12-23T10:08:05.275Z,1.20
2022-12-23T10:10:38.911Z,1.30
2022-12-23T10:13:12.668Z,1.50
2022-12-23T10:15:47.459Z,1.23
2022-12-23T10:18:24.819Z,1.40
2022-12-23T10:20:59.864Z,1.57
2022-12-23T10:23:33.601Z,1.40
2022-12-23T10:26:05.278Z,1.40
2022-12-23T10:28:33.952Z,1.60
2022-12-23T10:34:10.143Z,1.87
2022-12-23T10:36:50.820Z,2.07
2022-12-23T10:39:28.978Z,2.40
2022-12-23T10:42:08.620Z,2.43
2022-12-23T10:45:05.700Z,2.50
2022-12-23T10:47:45.600Z,2.43
2022-12-23T10:50:35.991Z,2.17
2022-12-23T10:53:10.140Z,2.40
2022-12-23T10:55:40.292Z,2.40
2022-12-23T10:58:20.508Z,3.10
2022-12-23T11:00:54.898Z,2.87
2022-12-23T11:03:29.032Z,2.90
2022-12-23T11:06:03.237Z,3.00
2022-12-23T11:08:33.267Z,3.30
2022-12-23T11:11:02.610Z,3.17
2022-12-23T11:13:40.657Z,3.30
2022-12-23T11:16:23.614Z,3.70
2022-12-23T11:18:58.408Z,3.47
2022-12-23T11:21:29.751Z,3.23
2022-12-23T11:24:28.233Z,3.80
2022-12-23T11:27:03.754Z,3.73
2022-12-23T11:29:36.379Z,3.83
2022-12-23T11:32:20.799Z,3.70
2022-12-23T11:34:50.721Z,4.40
2022-12-23T11:37:33.398Z,4.10
2022-12-23T11:40:02.564Z,3.83
2022-12-23T11:42:34.661Z,4.63
2022-12-23T11:45:08.021Z,4.30
2022-12-23T11:47:41.401Z,4.30
2022-12-23T11:50:33.720Z,7.20
2022-12-23T11:53:23.723Z,5.17
2022-12-23T11:56:02.163Z,4.83
2022-12-23T11:58:34.213Z,4.97
2022-12-23T12:01:09.407Z,4.80
2022-12-23T12:03:48.401Z,5.17
2022-12-23T12:06:20.188Z,4.67
2022-12-23T12:08:53.641Z,5.00
2022-12-23T12:11:29.791Z,4.80
2022-12-23T12:14:01.309Z,4.73
2022-12-23T12:16:50.167Z,4.83
2022-12-23T12:19:25.187Z,4.97
2022-12-23T12:21:57.632Z,4.97
2022-12-23T12:24:33.032Z,5.10
2022-12-23T12:27:03.966Z,4.70
2022-12-23T12:29:40.618Z,4.90
2022-12-23T12:32:19.844Z,5.10
2022-12-23T12:34:57.056Z,5.03
2022-12-23T12:37:34.710Z,4.97
2022-12-23T12:40:16.498Z,5.50
2022-12-23T12:42:50.620Z,5.27
2022-12-23T12:45:23.587Z,5.30
2022-12-23T12:48:13.103Z,5.40
2022-12-23T12:50:55.966Z,5.90
2022-12-23T12:53:25.605Z,5.83
2022-12-23T12:55:59.753Z,5.27
2022-12-23T12:58:28.562Z,5.27
2022-12-23T13:01:11.426Z,5.70
2022-12-23T13:04:14.979Z,5.93
2022-12-23T13:06:54.142Z,6.47
2022-12-23T13:09:29.948Z,6.33
2022-12-23T13:12:07.026Z,7.20
2022-12-23T13:14:56.496Z,6.83
2022-12-23T13:17:29.152Z,6.67
2022-12-23T13:20:04.348Z,6.30
2022-12-23T13:22:35.400Z,7.00
2022-12-23T13:25:10.191Z,5.40
2022-12-23T13:27:45.743Z,5.00
2022-12-23T13:30:17.464Z,4.40
2022-12-23T13:33:18.418Z,5.60
2022-12-23T13:36:09.293Z,4.17
2022-12-23T13:39:00.031Z,4.60
2022-12-23T13:41:35.779Z,5.20
2022-12-23T13:44:10.818Z,4.90
2022-12-23T13:46:48.632Z,5.00
2022-12-23T13:49:26.693Z,4.73
2022-12-23T13:52:05.264Z,4.30
2022-12-23T13:54:47.357Z,4.03
2022-12-23T13:57:28.962Z,4.67
2022-12-23T14:00:05.862Z,4.43
2022-12-23T14:02:51.159Z,4.50
2022-12-23T14:05:35.139Z,5.20
2022-12-23T14:08:06.493Z,5.00
2022-12-23T14:10:36.257Z,5.33
2022-12-23T14:13:09.978Z,6.00
2022-12-23T14:15:53.527Z,6.47
2022-12-23T14:18:46.734Z,6.63
2022-12-23T14:21:28.696Z,7.07
2022-12-23T14:24:16.027Z,7.63
2022-12-23T14:27:05.570Z,7.67
2022-12-23T14:29:52.703Z,7.27
2022-12-23T14:32:28.121Z,8.00
2022-12-23T14:35:24.468Z,8.30
2022-12-23T14:38:24.459Z,8.40
2022-12-23T14:40:59.011Z,8.47
2022-12-23T14:43:59.384Z,8.97
2022-12-23T14:46:59.603Z,9.03
2022-12-23T14:49:42.949Z,8.87
2022-12-23T14:52:46.501Z,8.80
2022-12-23T14:55:54.811Z,9.23
2022-12-23T14:58:53.850Z,8.77
2022-12-23T15:01:33.035Z,9.17
2022-12-23T15:04:09.336Z,9.13
2022-12-23T15:06:41.750Z,9.63
2022-12-23T15:09:19.277Z,9.13
2022-12-23T15:11:48.602Z,10.00
2022-12-23T15:14:35.260Z,9.67
2022-12-23T15:17:17.448Z,10.10
2022-12-23T15:19:47.787Z,9.47
2022-12-23T15:22:24.070Z,9.13
2022-12-23T15:25:21.530Z,8.50
2022-12-23T15:27:53.517Z,9.07
2022-12-23T15:30:34.090Z,13.83
2022-12-23T15:33:27.864Z,9.50
2022-12-23T15:35:55.544Z,9.80
2022-12-23T15:38:36.001Z,10.80
2022-12-23T15:41:17.260Z,12.67
2022-12-23T15:43:46.712Z,11.70
2022-12-23T15:46:25.053Z,11.73
2022-12-23T15:48:59.485Z,12.00
2022-12-23T15:52:18.257Z,12.37
2022-12-23T15:55:37.279Z,12.60
2022-12-23T15:58:07.497Z,12.10
2022-12-23T16:00:41.377Z,13.10
2022-12-23T16:03:25.974Z,11.93
2022-12-23T16:05:55.787Z,12.03
2022-12-23T16:08:30.095Z,10.67
2022-12-23T16:11:13.421Z,12.50
2022-12-23T16:13:58.366Z,12.87
2022-12-23T16:16:39.191Z,11.60
2022-12-23T16:19:08.511Z,12.23
2022-12-23T16:21:38.351Z,10.53
2022-12-23T16:24:10.271Z,10.40
2022-12-23T16:26:42.623Z,11.03
2022-12-23T16:29:13.533Z,10.80
2022-12-23T16:31:51.101Z,10.07
2022-12-23T16:34:21.112Z,12.80
2022-12-23T16:36:49.863Z,13.20
2022-12-23T16:39:21.988Z,11.13
2022-12-23T16:41:51.302Z,12.77
2022-12-23T16:44:21.345Z,12.63
2022-12-23T16:46:51.992Z,12.17
2022-12-23T16:49:24.446Z,11.77
2022-12-23T16:51:56.790Z,11.90
2022-12-23T16:54:25.554Z,12.20
2022-12-23T16:56:54.222Z,12.90
2022-12-23T16:59:26.102Z,12.87
2022-12-23T17:02:01.196Z,12.10
2022-12-23T17:04:31.940Z,11.60
2022-12-23T17:07:00.637Z,12.50
2022-12-23T17:09:29.257Z,12.20
2022-12-23T17:11:57.794Z,11.73
2022-12-23T17:14:27.824Z,13.23
2022-12-23T17:16:57.689Z,12.03
2022-12-23T17:19:28.487Z,13.10
2022-12-23T17:22:02.863Z,12.10
2022-12-23T17:24:31.661Z,11.70
2022-12-23T17:27:00.502Z,12.17
2022-12-23T17:29:30.589Z,11.73
2022-12-23T17:31:59.372Z,12.10
2022-12-23T17:34:27.983Z,11.00
2022-12-23T17:36:56.709Z,10.80
2022-12-23T17:39:25.550Z,10.53
2022-12-23T17:41:54.227Z,10.27
2022-12-23T17:44:22.861Z,11.63
2022-12-23T17:46:52.947Z,9.03
2022-12-23T17:49:21.605Z,9.20
2022-12-23T17:51:50.491Z,9.73
2022-12-23T17:54:24.485Z,9.90
2022-12-23T17:56:53.622Z,14.97
2022-12-23T17:59:22.528Z,9.00
2022-12-23T18:01:53.038Z,12.43
2022-12-23T18:04:21.873Z,8.33
2022-12-23T18:06:50.540Z,7.33
2022-12-23T18:09:21.382Z,8.10
2022-12-23T18:11:50.235Z,5.87
2022-12-23T18:14:28.594Z,6.90
2022-12-23T18:16:58.859Z,8.10
2022-12-23T18:19:32.957Z,6.93
2022-12-23T18:22:01.509Z,8.83
2022-12-23T18:24:31.336Z,4.80
2022-12-23T18:26:59.903Z,2.83
2022-12-23T18:29:28.538Z,2.77
2022-12-23T18:31:58.772Z,2.70
2022-12-23T18:34:27.453Z,2.27
2022-12-23T18:36:56.114Z,2.80
2022-12-23T18:39:24.823Z,2.90
2022-12-23T18:41:53.499Z,2.47
2022-12-23T18:44:22.725Z,3.07
2022-12-23T18:46:53.739Z,2.60
2022-12-23T18:49:23.910Z,3.00
2022-12-23T18:51:52.744Z,2.87
2022-12-23T18:54:21.615Z,2.63
2022-12-23T18:56:52.235Z,4.20
2022-12-23T18:59:29.650Z,2.23
2022-12-23T19:02:01.515Z,2.40
2022-12-23T19:04:31.689Z,4.50
2022-12-23T19:07:00.388Z,4.70
2022-12-23T19:09:29.361Z,2.20
2022-12-23T19:11:58.308Z,3.43
2022-12-23T19:14:27.140Z,2.77
2022-12-23T19:16:55.911Z,2.23
2022-12-23T19:19:24.647Z,2.20
2022-12-23T19:21:54.844Z,2.70
2022-12-23T19:24:23.595Z,2.57
2022-12-23T19:26:52.316Z,2.70
2022-12-23T19:29:21.500Z,2.30
2022-12-23T19:31:50.166Z,2.00
2022-12-23T19:34:18.830Z,1.90
2022-12-23T19:36:48.230Z,2.00
2022-12-23T19:39:24.208Z,2.70
2022-12-23T19:41:52.937Z,2.60
2022-12-23T19:44:21.642Z,2.77
2022-12-23T19:46:50.674Z,2.37
2022-12-23T19:50:12.898Z,2.60
2022-12-23T19:52:41.646Z,2.80
2022-12-23T19:55:13.029Z,2.60
2022-12-23T19:57:41.752Z,1.90
2022-12-23T20:00:11.441Z,2.40
2022-12-23T20:02:42.750Z,3.67
2022-12-23T20:05:11.588Z,2.33
2022-12-23T20:07:40.393Z,2.30
2022-12-23T20:10:11.928Z,2.10
2022-12-23T20:12:40.864Z,2.17
2022-12-23T20:15:10.740Z,1.77
2022-12-23T20:17:40.408Z,3.00
2022-12-23T20:20:10.299Z,1.83
2022-12-23T20:22:38.959Z,5.57
2022-12-23T20:25:08.423Z,3.90
2022-12-23T20:27:38.949Z,7.77
2022-12-23T20:30:08.921Z,3.40
2022-12-23T20:32:37.572Z,9.47
2022-12-23T20:35:07.394Z,4.27
2022-12-23T20:37:36.044Z,3.20
2022-12-23T20:40:05.093Z,4.20
2022-12-23T20:42:33.762Z,5.57
2022-12-23T20:45:04.519Z,7.77
2022-12-23T20:47:33.427Z,5.73
2022-12-23T20:50:02.268Z,6.80
2022-12-23T20:52:30.965Z,4.20
2022-12-23T20:55:01.702Z,4.07
2022-12-23T20:57:31.718Z,5.20
2022-12-23T21:00:00.650Z,16.33
2022-12-23T21:02:32.045Z,3.20
2022-12-23T21:05:00.897Z,2.50
2022-12-23T21:07:29.723Z,2.60
2022-12-23T21:09:58.654Z,3.10
2022-12-23T21:12:27.257Z,2.73
2022-12-23T21:14:56.213Z,2.43
2022-12-23T21:17:26.006Z,3.50
2022-12-23T21:19:58.204Z,3.37
2022-12-23T21:22:26.945Z,3.83
2022-12-23T21:24:55.637Z,1.70
2022-12-23T21:27:24.321Z,2.43
2022-12-23T21:29:53.133Z,1.60
2022-12-23T21:32:21.941Z,2.10
2022-12-23T21:34:50.805Z,1.90
2022-12-23T21:37:20.976Z,1.63
2022-12-23T21:39:49.723Z,2.20
2022-12-23T21:42:18.438Z,2.60
2022-12-23T21:44:47.163Z,1.83
2022-12-23T21:47:15.943Z,2.27
2022-12-23T21:49:44.724Z,1.60
2022-12-23T21:52:13.404Z,2.83
2022-12-23T21:54:45.517Z,2.00
2022-12-23T21:57:14.236Z,1.63
2022-12-23T21:59:42.966Z,1.80
2022-12-23T22:02:16.483Z,1.83
2022-12-23T22:04:45.383Z,1.30
2022-12-23T22:07:13.986Z,2.20
2022-12-23T22:09:42.791Z,1.60
2022-12-23T22:12:13.011Z,1.30
2022-12-23T22:14:41.649Z,1.30
2022-12-23T22:17:10.316Z,1.60
2022-12-23T22:19:39.006Z,1.30
2022-12-23T22:22:07.687Z,1.50
2022-12-23T22:24:36.319Z,2.40
2022-12-23T22:27:05.046Z,1.60
2022-12-23T22:29:35.198Z,1.80
2022-12-23T22:32:04.142Z,1.57
2022-12-23T22:34:32.878Z,2.73
2022-12-23T22:37:01.513Z,2.53
2022-12-23T22:39:30.432Z,2.10
2022-12-23T22:41:59.149Z,2.37
2022-12-23T22:44:27.760Z,2.00
2022-12-23T22:46:57.995Z,1.50
2022-12-23T22:49:26.797Z,1.90
2022-12-23T22:51:55.559Z,1.50
2022-12-23T22:54:24.344Z,1.83
2022-12-23T22:56:53.119Z,1.40
2022-12-23T22:59:23.380Z,1.20
2022-12-23T23:01:52.771Z,1.40
2022-12-23T23:04:23.011Z,1.60
2022-12-23T23:06:51.759Z,1.80
2022-12-23T23:09:22.022Z,1.57
2022-12-23T23:11:51.254Z,1.50
2022-12-23T23:14:21.787Z,1.53
2022-12-23T23:16:50.542Z,2.00
2022-12-23T23:19:20.714Z,1.70
2022-12-23T23:21:50.913Z,1.50
2022-12-23T23:24:19.695Z,1.87
2022-12-23T23:26:48.323Z,1.70
2022-12-23T23:29:16.968Z,1.90
2022-12-23T23:31:45.646Z,1.93
2022-12-23T23:34:14.863Z,1.87
2022-12-23T23:36:43.816Z,1.70
2022-12-23T23:39:14.844Z,1.43
2022-12-23T23:41:44.215Z,1.90
2022-12-23T23:44:13.431Z,1.47
2022-12-23T23:46:42.136Z,1.40
2022-12-23T23:49:11.113Z,1.50
2022-12-23T23:51:41.745Z,1.60
2022-12-23T23:54:10.845Z,1.70
2022-12-23T23:56:41.179Z,1.50
2022-12-23T23:59:10.542Z,1.50
